KRGK

Red Wing Regional Airport

Red Wing, Minnesota, USA
METAR KRGK 231455Z AUTO 14005KT 10SM CLR 21/14 A3010 RMK AO2
Observed Flight Rules
May-23 @ 14:55 UTC (15 minutes ago) Visual Flight Rules
Wind Visibility Clouds
140° at 5 knots 10 miles
  • Clear skies
Temperatures Readings
Current 21°C / 70°F
Dewpoint 14°C / 57°F
Humidity 64%
Altimeter 30.1" Hg
Pressure 1019 hPa
Elevation 239
METAR KRGK 231455Z AUTO 14005KT 10SM CLR 21/14 A3010 RMK AO2
Observed Flight Rules
May-23 @ 14:55 UTC
(15 minutes ago)
VFR
Wind Visibility
140° at 5 knots 10 miles
Clouds
  • Clear skies
Temperature Dewpoint
21°C / 70°F 14°C / 57°F
Humidity Altimeter Pressure
64% 30.1" Hg 1019 hPa